Taasinge Maersk — OUSX2 — position and weather

sailwx.info

Track history (hours):
 
Tides and Currents Weather Stations Pressure Air Temp Water Temp Dewpoint Dewpoint Depression Visibility Wind Speed Wind Dir Waves Ship Positions

Taasinge Maersk

Last reported at 2015-Mar-01 03:19 UTC. Time now 2015-Mar-02 19:07 UTC.
Position N 07°27' W 013°59'.

Length 191 m; draft 7.7 m.

Type: Cargo ship. MMSI: 220157000.

Date/timePositionNaut miles runAvg speedWind from/ knotsBaromVisibWave heightAir tempDewpointWater temp
2015-Mar-01 03:19N 07°27' W 013°59'1113.5
2015-Mar-01 02:31N 07°34' W 014°08'6114.0
2015-Feb-28 22:10N 08°14' W 014°54'1014.2
2015-Feb-28 21:28N 08°20' W 015°02'1314.3
2015-Feb-28 20:33N 08°29' W 015°12'1414.4
2015-Feb-28 19:33N 08°38' W 015°23'1714.1
2015-Feb-28 18:23N 08°49' W 015°35'1714.0
2015-Feb-28 17:11N 09°00' W 015°48'1614.1
2015-Feb-28 16:04N 09°10' W 016°00'814.4
2015-Feb-28 15:33N 09°15' W 016°06'14614.0
2015-Feb-28 05:07N 11°19' W 017°24'813.5
2015-Feb-28 04:30N 11°27' W 017°25'48214.2
2015-Feb-26 18:25N 19°29' W 017°40'6914.2
2015-Feb-26 13:33N 20°38' W 017°40'  
2015-Feb-23 06:33N 35°58' W 005°35'1110.5
2015-Feb-23 05:33N 36°03' W 005°23'7 6.2
2015-Feb-23 04:30N 36°09' W 005°25'0 0.1
2015-Feb-23 03:30N 36°09' W 005°25'0 0.0
2015-Feb-23 02:33N 36°09' W 005°25'0 0.0
2015-Feb-23 01:33N 36°09' W 005°25'0 0.1
2015-Feb-23 00:33N 36°09' W 005°25'0 0.0
2015-Feb-22 23:33N 36°09' W 005°25'0 0.0
2015-Feb-22 22:33N 36°09' W 005°25'0 0.0
2015-Feb-22 21:33N 36°09' W 005°25'0 0.0
2015-Feb-22 20:33N 36°09' W 005°25'0 0.0
2015-Feb-22 19:33N 36°09' W 005°25'0 0.0
2015-Feb-22 18:33N 36°09' W 005°25'0 0.0
2015-Feb-22 17:33N 36°09' W 005°25'0 0.0
2015-Feb-22 16:33N 36°09' W 005°25'0 0.0
2015-Feb-22 15:33N 36°09' W 005°25'0 0.0
2015-Feb-22 14:33N 36°09' W 005°25'0 0.0
2015-Feb-22 13:33N 36°09' W 005°25'0 0.1
2015-Feb-22 12:33N 36°09' W 005°25'0 0.1
2015-Feb-22 11:33N 36°09' W 005°25'0 0.0
2015-Feb-22 10:33N 36°09' W 005°25'0 0.0
2015-Feb-22 09:33N 36°09' W 005°25'0 0.0
2015-Feb-22 08:33N 36°09' W 005°25'1 1.3
2015-Feb-22 07:33N 36°08' W 005°26'0 0.1
2015-Feb-22 05:29N 36°08' W 005°26'0 0.0
2015-Feb-22 04:32N 36°08' W 005°26'0 0.0
2015-Feb-22 03:32N 36°08' W 005°26'0 0.0
2015-Feb-22 02:32N 36°08' W 005°26'0 0.0
2015-Feb-22 01:33N 36°08' W 005°26'0 0.0
2015-Feb-22 00:33N 36°08' W 005°26'0 0.0
2015-Feb-21 23:33N 36°08' W 005°26'0 0.0
2015-Feb-21 22:33N 36°08' W 005°26'0 0.0
2015-Feb-21 21:33N 36°08' W 005°26'0 0.0
2015-Feb-21 20:33N 36°08' W 005°26'0 0.0
2015-Feb-21 19:33N 36°08' W 005°26'0 0.0
2015-Feb-21 18:33N 36°08' W 005°26'0 0.0
2015-Feb-21 17:32N 36°08' W 005°26'0 0.0
2015-Feb-21 16:31N 36°08' W 005°26'0 0.0
2015-Feb-21 15:22N 36°08' W 005°26'0 0.0
2015-Feb-21 13:33N 36°08' W 005°26'0 0.0
2015-Feb-21 12:33N 36°08' W 005°26'0 0.0
2015-Feb-21 11:25N 36°08' W 005°26'0 0.0
2015-Feb-21 10:28N 36°08' W 005°26'2 2.6
2015-Feb-21 09:33N 36°07' W 005°23'6 5.7
2015-Feb-21 08:33N 36°04' W 005°17'6 1.5
2015-Feb-21 04:33N 36°06' W 005°10'1 0.1
2015-Feb-20 13:32N 36°06' W 005°09'3 2.8
2015-Feb-20 12:33N 36°06' W 005°13'3 2.9
2015-Feb-20 11:33N 36°05' W 005°16'2 2.4
2015-Feb-20 10:33N 36°05' W 005°19'3 3.5
2015-Feb-20 09:33N 36°03' W 005°23'8 8.3
2015-Feb-20 08:33N 35°56' W 005°29'  
Track history (hours):
 
Tides and Currents Weather Stations Pressure Air Temp Water Temp Dewpoint Dewpoint Depression Visibility Wind Speed Wind Dir Waves Ship Positions

Taasinge Maersk

Last reported at 2015-Mar-01 03:19 UTC. Time now 2015-Mar-02 19:07 UTC.
Position N 07°27' W 013°59'.

Length 191 m; draft 7.7 m.

Type: Cargo ship. MMSI: 220157000.

Date/timePositionNaut miles runAvg speedWind from/ knotsBaromVisibWave heightAir tempDewpointWater temp
2015-Mar-01 03:19N 07°27' W 013°59'1113.5
2015-Mar-01 02:31N 07°34' W 014°08'6114.0
2015-Feb-28 22:10N 08°14' W 014°54'1014.2
2015-Feb-28 21:28N 08°20' W 015°02'1314.3
2015-Feb-28 20:33N 08°29' W 015°12'1414.4
2015-Feb-28 19:33N 08°38' W 015°23'1714.1
2015-Feb-28 18:23N 08°49' W 015°35'1714.0
2015-Feb-28 17:11N 09°00' W 015°48'1614.1
2015-Feb-28 16:04N 09°10' W 016°00'814.4
2015-Feb-28 15:33N 09°15' W 016°06'14614.0
2015-Feb-28 05:07N 11°19' W 017°24'813.5
2015-Feb-28 04:30N 11°27' W 017°25'48214.2
2015-Feb-26 18:25N 19°29' W 017°40'6914.2
2015-Feb-26 13:33N 20°38' W 017°40'  
2015-Feb-23 06:33N 35°58' W 005°35'1110.5
2015-Feb-23 05:33N 36°03' W 005°23'7 6.2
2015-Feb-23 04:30N 36°09' W 005°25'0 0.1
2015-Feb-23 03:30N 36°09' W 005°25'0 0.0
2015-Feb-23 02:33N 36°09' W 005°25'0 0.0
2015-Feb-23 01:33N 36°09' W 005°25'0 0.1
2015-Feb-23 00:33N 36°09' W 005°25'0 0.0
2015-Feb-22 23:33N 36°09' W 005°25'0 0.0
2015-Feb-22 22:33N 36°09' W 005°25'0 0.0
2015-Feb-22 21:33N 36°09' W 005°25'0 0.0
2015-Feb-22 20:33N 36°09' W 005°25'0 0.0
2015-Feb-22 19:33N 36°09' W 005°25'0 0.0
2015-Feb-22 18:33N 36°09' W 005°25'0 0.0
2015-Feb-22 17:33N 36°09' W 005°25'0 0.0
2015-Feb-22 16:33N 36°09' W 005°25'0 0.0
2015-Feb-22 15:33N 36°09' W 005°25'0 0.0
2015-Feb-22 14:33N 36°09' W 005°25'0 0.0
2015-Feb-22 13:33N 36°09' W 005°25'0 0.1
2015-Feb-22 12:33N 36°09' W 005°25'0 0.1
2015-Feb-22 11:33N 36°09' W 005°25'0 0.0
2015-Feb-22 10:33N 36°09' W 005°25'0 0.0
2015-Feb-22 09:33N 36°09' W 005°25'0 0.0
2015-Feb-22 08:33N 36°09' W 005°25'1 1.3
2015-Feb-22 07:33N 36°08' W 005°26'0 0.1
2015-Feb-22 05:29N 36°08' W 005°26'0 0.0
2015-Feb-22 04:32N 36°08' W 005°26'0 0.0
2015-Feb-22 03:32N 36°08' W 005°26'0 0.0
2015-Feb-22 02:32N 36°08' W 005°26'0 0.0
2015-Feb-22 01:33N 36°08' W 005°26'0 0.0
2015-Feb-22 00:33N 36°08' W 005°26'0 0.0
2015-Feb-21 23:33N 36°08' W 005°26'0 0.0
2015-Feb-21 22:33N 36°08' W 005°26'0 0.0
2015-Feb-21 21:33N 36°08' W 005°26'0 0.0
2015-Feb-21 20:33N 36°08' W 005°26'0 0.0
2015-Feb-21 19:33N 36°08' W 005°26'0 0.0
2015-Feb-21 18:33N 36°08' W 005°26'0 0.0
2015-Feb-21 17:32N 36°08' W 005°26'0 0.0
2015-Feb-21 16:31N 36°08' W 005°26'0 0.0
2015-Feb-21 15:22N 36°08' W 005°26'0 0.0
2015-Feb-21 13:33N 36°08' W 005°26'0 0.0
2015-Feb-21 12:33N 36°08' W 005°26'0 0.0
2015-Feb-21 11:25N 36°08' W 005°26'0 0.0
2015-Feb-21 10:28N 36°08' W 005°26'2 2.6
2015-Feb-21 09:33N 36°07' W 005°23'6 5.7
2015-Feb-21 08:33N 36°04' W 005°17'6 1.5
2015-Feb-21 04:33N 36°06' W 005°10'1 0.1
2015-Feb-20 13:32N 36°06' W 005°09'3 2.8
2015-Feb-20 12:33N 36°06' W 005°13'3 2.9
2015-Feb-20 11:33N 36°05' W 005°16'2 2.4
2015-Feb-20 10:33N 36°05' W 005°19'3 3.5
2015-Feb-20 09:33N 36°03' W 005°23'8 8.3
2015-Feb-20 08:33N 35°56' W 005°29'  

Dump ship's entire track history